createdAt,value
2023-01-01T00:02:04.068Z,70.88
2023-01-01T00:04:31.960Z,71.15
2023-01-01T00:06:58.397Z,71.11
2023-01-01T00:09:43.113Z,71.12
2023-01-01T00:12:09.828Z,70.89
2023-01-01T00:14:36.373Z,71.03
2023-01-01T00:17:03.017Z,71.09
2023-01-01T00:19:29.713Z,71.15
2023-01-01T00:21:55.970Z,70.96
2023-01-01T00:24:22.405Z,70.97
2023-01-01T00:26:48.970Z,70.84
2023-01-01T00:29:15.307Z,70.59
2023-01-01T00:31:41.697Z,70.41
2023-01-01T00:34:09.457Z,70.30
2023-01-01T00:36:35.901Z,70.23
2023-01-01T00:39:03.277Z,70.24
2023-01-01T00:41:30.511Z,70.21
2023-01-01T00:43:56.934Z,70.07
2023-01-01T00:46:23.313Z,70.22
2023-01-01T00:48:49.921Z,70.04
2023-01-01T00:51:16.343Z,69.96
2023-01-01T00:53:42.736Z,69.93
2023-01-01T00:56:09.866Z,69.88
2023-01-01T00:58:36.253Z,69.42
2023-01-01T01:01:03.356Z,69.74
2023-01-01T01:03:30.753Z,69.46
2023-01-01T01:06:01.928Z,69.40
2023-01-01T01:08:31.411Z,69.28
2023-01-01T01:11:15.676Z,69.21
2023-01-01T01:13:43.984Z,69.31
2023-01-01T01:16:32.461Z,69.58
2023-01-01T01:19:00.905Z,69.26
2023-01-01T01:21:30.127Z,69.32
2023-01-01T01:23:57.883Z,69.56
2023-01-01T01:26:26.414Z,69.34
2023-01-01T01:28:53.541Z,69.19
2023-01-01T01:31:22.035Z,69.19
2023-01-01T01:33:49.186Z,68.87
2023-01-01T01:36:16.841Z,68.75
2023-01-01T01:38:43.481Z,68.63
2023-01-01T01:41:26.022Z,68.44
2023-01-01T01:43:56.024Z,68.29
2023-01-01T01:46:41.211Z,68.29
2023-01-01T01:49:27.542Z,68.28
2023-01-01T01:51:54.822Z,68.11
2023-01-01T01:54:23.934Z,68.04
2023-01-01T01:57:05.251Z,68.05
2023-01-01T01:59:35.305Z,67.82
2023-01-01T02:02:02.281Z,67.83
2023-01-01T02:04:29.112Z,67.53
2023-01-01T02:06:56.225Z,67.66
2023-01-01T02:09:22.888Z,67.72
2023-01-01T02:11:49.216Z,67.64
2023-01-01T02:14:16.041Z,67.51
2023-01-01T02:16:46.858Z,67.39
2023-01-01T02:19:32.188Z,67.36
2023-01-01T02:22:06.283Z,67.28
2023-01-01T02:24:47.883Z,67.21
2023-01-01T02:27:28.443Z,67.26
2023-01-01T02:29:57.772Z,67.10
2023-01-01T02:32:49.160Z,66.94
2023-01-01T02:35:35.708Z,66.71
2023-01-01T02:38:10.329Z,66.74
2023-01-01T02:40:40.933Z,66.59
2023-01-01T02:43:07.961Z,66.32
2023-01-01T02:45:34.468Z,66.27
2023-01-01T02:48:35.358Z,66.20
2023-01-01T02:51:08.492Z,66.47
2023-01-01T02:54:05.618Z,66.40
2023-01-01T02:56:37.472Z,66.19
2023-01-01T02:59:46.804Z,66.31
2023-01-01T03:02:34.825Z,66.37
2023-01-01T03:05:25.263Z,66.25
2023-01-01T03:08:01.391Z,66.21
2023-01-01T03:10:45.609Z,66.15
2023-01-01T03:13:23.832Z,66.19
2023-01-01T03:16:00.351Z,66.04
2023-01-01T03:18:36.642Z,65.93
2023-01-01T03:21:05.189Z,65.90
2023-01-01T03:23:38.060Z,65.76
2023-01-01T03:26:10.816Z,65.46
2023-01-01T03:28:43.890Z,65.64
2023-01-01T03:31:17.707Z,65.40
2023-01-01T03:33:47.115Z,65.52
2023-01-01T03:36:46.098Z,65.49
2023-01-01T03:39:18.481Z,65.31
2023-01-01T03:42:10.106Z,65.47
2023-01-01T03:44:46.403Z,65.03
2023-01-01T03:47:13.472Z,65.02
2023-01-01T03:49:40.386Z,65.05
2023-01-01T03:52:15.020Z,64.96
2023-01-01T03:54:48.243Z,64.90
2023-01-01T03:57:25.504Z,64.30
2023-01-01T03:59:52.108Z,64.44
2023-01-01T04:02:19.801Z,64.40
2023-01-01T04:04:48.535Z,64.46
2023-01-01T04:07:15.936Z,64.17
2023-01-01T04:09:48.144Z,64.29
2023-01-01T04:12:15.621Z,64.20
2023-01-01T04:14:43.551Z,64.20
2023-01-01T04:17:11.272Z,64.17
2023-01-01T04:19:38.160Z,63.91
2023-01-01T04:22:06.016Z,63.82
2023-01-01T04:24:32.637Z,63.95
2023-01-01T04:26:59.042Z,63.90
2023-01-01T04:29:27.111Z,64.09
2023-01-01T04:31:53.669Z,64.08
2023-01-01T04:34:20.272Z,64.17
2023-01-01T04:36:49.801Z,64.34
2023-01-01T04:39:16.440Z,64.24
2023-01-01T04:41:43.031Z,64.32
2023-01-01T04:44:09.679Z,64.22
2023-01-01T04:46:36.136Z,64.45
2023-01-01T04:49:02.549Z,64.18
2023-01-01T04:51:29.415Z,64.23
2023-01-01T04:53:55.747Z,64.40
2023-01-01T04:56:22.769Z,64.27
2023-01-01T04:58:49.607Z,64.48
2023-01-01T05:01:24.438Z,64.26
2023-01-01T05:03:51.725Z,64.25
2023-01-01T05:06:18.467Z,63.99
2023-01-01T05:08:47.435Z,64.30
2023-01-01T05:11:19.100Z,64.20
2023-01-01T05:13:50.816Z,64.11
2023-01-01T05:16:19.750Z,63.96
2023-01-01T05:18:46.803Z,64.35
2023-01-01T05:21:19.110Z,64.00
2023-01-01T05:23:45.688Z,63.99
2023-01-01T05:26:17.559Z,63.90
2023-01-01T05:28:44.611Z,63.75
2023-01-01T05:31:16.453Z,63.73
2023-01-01T05:33:43.447Z,63.98
2023-01-01T05:36:15.238Z,64.01
2023-01-01T05:38:41.989Z,63.91
2023-01-01T05:41:10.928Z,64.16
2023-01-01T05:43:37.492Z,64.14
2023-01-01T05:46:06.188Z,63.85
2023-01-01T05:48:35.828Z,64.09
2023-01-01T05:51:14.951Z,63.96
2023-01-01T05:53:43.471Z,64.05
2023-01-01T05:56:10.975Z,64.25
2023-01-01T05:58:37.669Z,64.01
2023-01-01T06:01:06.008Z,63.95
2023-01-01T06:03:32.685Z,63.93
2023-01-01T06:06:03.552Z,63.94
2023-01-01T06:08:30.233Z,64.01
2023-01-01T06:11:01.606Z,63.92
2023-01-01T06:13:28.664Z,63.88
2023-01-01T06:15:56.670Z,63.80
2023-01-01T06:18:24.150Z,63.65
2023-01-01T06:20:51.166Z,63.81
2023-01-01T06:23:18.347Z,63.84
2023-01-01T06:25:44.808Z,63.77
2023-01-01T06:28:11.059Z,63.98
2023-01-01T06:30:38.235Z,63.59
2023-01-01T06:33:04.988Z,63.80
2023-01-01T06:35:31.363Z,63.64
2023-01-01T06:38:00.902Z,63.74
2023-01-01T06:40:27.479Z,63.69
2023-01-01T06:42:53.808Z,63.76
2023-01-01T06:45:20.269Z,63.97
2023-01-01T06:47:46.896Z,63.84
2023-01-01T06:50:13.480Z,64.07
2023-01-01T06:52:39.827Z,63.91
2023-01-01T06:55:06.331Z,63.93
2023-01-01T06:57:33.985Z,63.86
2023-01-01T07:00:00.323Z,64.07
2023-01-01T07:02:27.022Z,64.09
2023-01-01T07:04:53.468Z,64.12
2023-01-01T07:07:19.844Z,64.08
2023-01-01T07:09:46.422Z,63.88
2023-01-01T07:12:12.821Z,63.80
2023-01-01T07:14:39.394Z,63.77
2023-01-01T07:17:06.184Z,63.80
2023-01-01T07:19:32.420Z,63.73
2023-01-01T07:21:58.815Z,63.27
2023-01-01T07:24:25.439Z,63.40
2023-01-01T07:26:51.782Z,63.65
2023-01-01T07:29:18.129Z,63.68
2023-01-01T07:31:45.092Z,63.81
2023-01-01T07:34:18.423Z,63.66
2023-01-01T07:36:47.321Z,63.80
2023-01-01T07:39:13.789Z,63.95
2023-01-01T07:41:40.216Z,63.65
2023-01-01T07:44:06.690Z,63.44
2023-01-01T07:46:35.229Z,63.71
2023-01-01T07:49:01.917Z,63.43
2023-01-01T07:51:28.419Z,63.55
2023-01-01T07:53:55.800Z,63.58
2023-01-01T07:56:24.769Z,63.59
2023-01-01T07:58:51.359Z,63.63
2023-01-01T08:01:18.562Z,63.83
2023-01-01T08:03:45.042Z,63.60
2023-01-01T08:06:12.874Z,63.42
2023-01-01T08:08:40.402Z,63.54
2023-01-01T08:11:07.106Z,63.54
2023-01-01T08:13:33.722Z,63.25
2023-01-01T08:16:00.550Z,63.48
2023-01-01T08:18:27.154Z,63.49
2023-01-01T08:20:53.659Z,63.56
2023-01-01T08:23:20.502Z,63.51
2023-01-01T08:25:47.144Z,63.56
2023-01-01T08:28:13.541Z,63.59
2023-01-01T08:30:39.993Z,63.22
2023-01-01T08:33:06.814Z,63.29
2023-01-01T08:35:35.841Z,63.22
2023-01-01T08:38:02.449Z,63.21
2023-01-01T08:40:28.835Z,63.09
2023-01-01T08:42:55.400Z,63.07
2023-01-01T08:45:22.169Z,63.08
2023-01-01T08:47:48.446Z,63.28
2023-01-01T08:50:14.965Z,63.09
2023-01-01T08:52:41.414Z,63.27
2023-01-01T08:55:08.311Z,62.95
2023-01-01T08:57:34.635Z,63.03
2023-01-01T09:00:01.679Z,62.65
2023-01-01T09:02:28.207Z,62.66
2023-01-01T09:04:55.015Z,62.62
2023-01-01T09:07:21.682Z,62.46
2023-01-01T09:09:48.149Z,62.72
2023-01-01T09:12:15.937Z,62.48
2023-01-01T09:14:42.488Z,61.93
2023-01-01T09:17:09.076Z,61.77
2023-01-01T09:19:36.016Z,61.64
2023-01-01T09:22:02.755Z,61.33
2023-01-01T09:24:29.030Z,61.52
2023-01-01T09:26:55.751Z,61.46
2023-01-01T09:29:22.471Z,61.69
2023-01-01T09:31:49.061Z,61.54
2023-01-01T09:34:17.287Z,61.59
2023-01-01T09:36:44.962Z,61.60
2023-01-01T09:39:14.751Z,61.40
2023-01-01T09:41:43.617Z,61.55
2023-01-01T09:44:16.335Z,61.42
2023-01-01T09:46:42.857Z,61.55
2023-01-01T09:49:18.350Z,61.48
2023-01-01T09:51:55.590Z,61.54
2023-01-01T09:54:50.816Z,61.60
2023-01-01T09:57:20.201Z,61.55
2023-01-01T09:59:46.910Z,61.75
2023-01-01T10:02:16.008Z,61.38
2023-01-01T10:04:57.642Z,61.42
2023-01-01T10:07:45.949Z,61.21
2023-01-01T10:10:26.323Z,61.29
2023-01-01T10:13:14.328Z,61.16
2023-01-01T10:15:55.615Z,61.66
2023-01-01T10:18:25.563Z,61.69
2023-01-01T10:21:10.106Z,61.37
2023-01-01T10:24:02.573Z,61.60
2023-01-01T10:26:30.032Z,61.62
2023-01-01T10:29:05.291Z,61.66
2023-01-01T10:31:39.968Z,61.36
2023-01-01T10:34:22.762Z,61.49
2023-01-01T10:36:52.624Z,61.42
2023-01-01T10:39:19.380Z,61.57
2023-01-01T10:41:46.495Z,61.38
2023-01-01T10:44:15.603Z,61.64
2023-01-01T10:46:48.814Z,61.38
2023-01-01T10:49:16.100Z,61.33
2023-01-01T10:51:48.124Z,61.02
2023-01-01T10:54:53.555Z,60.94
2023-01-01T10:57:30.071Z,61.27
2023-01-01T11:00:21.766Z,61.37
2023-01-01T11:03:18.931Z,61.34
2023-01-01T11:06:18.331Z,60.96
2023-01-01T11:08:50.497Z,61.33
2023-01-01T11:11:20.370Z,61.14
2023-01-01T11:13:49.585Z,61.41
2023-01-01T11:16:16.148Z,61.06
2023-01-01T11:18:42.851Z,61.34
2023-01-01T11:21:09.587Z,61.47
2023-01-01T11:23:38.302Z,61.28
2023-01-01T11:26:16.892Z,61.24
2023-01-01T11:29:02.284Z,61.36
2023-01-01T11:31:35.099Z,61.63
2023-01-01T11:34:02.885Z,61.71
2023-01-01T11:36:34.661Z,61.37
2023-01-01T11:39:19.132Z,61.81
2023-01-01T11:41:48.530Z,61.82
2023-01-01T11:44:24.075Z,61.77
2023-01-01T11:46:50.743Z,61.80
2023-01-01T11:49:23.294Z,61.64
2023-01-01T11:51:49.857Z,61.58
2023-01-01T11:54:37.474Z,61.34
2023-01-01T11:57:16.681Z,61.41
2023-01-01T11:59:48.565Z,61.58
2023-01-01T12:02:18.903Z,60.92
2023-01-01T12:04:58.232Z,60.79
2023-01-01T12:07:31.289Z,60.59
2023-01-01T12:10:01.982Z,60.77
2023-01-01T12:13:05.880Z,60.63
2023-01-01T12:15:39.779Z,60.04
2023-01-01T12:18:24.396Z,59.62
2023-01-01T12:20:53.883Z,59.99
2023-01-01T12:23:20.434Z,59.89
2023-01-01T12:26:10.842Z,59.90
2023-01-01T12:28:40.465Z,59.89
2023-01-01T12:31:26.956Z,59.81
2023-01-01T12:34:01.588Z,59.87
2023-01-01T12:36:52.398Z,59.65
2023-01-01T12:39:53.912Z,59.87
2023-01-01T12:42:30.594Z,60.05
2023-01-01T12:45:10.774Z,60.04
2023-01-01T12:47:49.178Z,59.73
2023-01-01T12:50:24.859Z,59.99
2023-01-01T12:52:59.335Z,59.98
2023-01-01T12:56:03.782Z,59.88
2023-01-01T12:58:40.275Z,60.10
2023-01-01T13:01:32.880Z,59.76
2023-01-01T13:04:05.071Z,59.67
2023-01-01T13:06:38.509Z,59.64
2023-01-01T13:09:15.651Z,59.53
2023-01-01T13:11:45.467Z,59.76
2023-01-01T13:14:12.582Z,59.98
2023-01-01T13:16:41.027Z,59.69
2023-01-01T13:19:24.472Z,59.43
2023-01-01T13:21:50.888Z,59.53
2023-01-01T13:24:23.514Z,59.74
2023-01-01T13:26:50.804Z,59.78
2023-01-01T13:29:20.188Z,59.43
2023-01-01T13:31:46.673Z,59.49
2023-01-01T13:34:39.496Z,59.60
2023-01-01T13:37:13.252Z,59.50
2023-01-01T13:39:59.357Z,59.52
2023-01-01T13:42:57.680Z,59.62
2023-01-01T13:46:13.379Z,59.89
2023-01-01T13:49:01.913Z,59.90
2023-01-01T13:52:08.634Z,59.88
2023-01-01T13:54:39.350Z,59.77
2023-01-01T13:57:27.131Z,60.00
2023-01-01T14:00:16.633Z,59.99
2023-01-01T14:03:06.065Z,59.82
2023-01-01T14:05:38.028Z,60.04
2023-01-01T14:08:09.927Z,59.88
2023-01-01T14:10:39.524Z,60.19
2023-01-01T14:13:06.266Z,60.06
2023-01-01T14:15:35.411Z,60.26
2023-01-01T14:18:14.573Z,60.28
2023-01-01T14:20:43.996Z,60.24
2023-01-01T14:23:19.145Z,60.21
2023-01-01T14:25:45.960Z,60.16
2023-01-01T14:28:18.738Z,60.20
2023-01-01T14:30:45.522Z,60.12
2023-01-01T14:33:30.137Z,60.20
2023-01-01T14:36:01.817Z,60.47
2023-01-01T14:38:41.879Z,60.20
2023-01-01T14:41:31.137Z,60.24
2023-01-01T14:44:12.918Z,60.30
2023-01-01T14:46:41.198Z,60.19
2023-01-01T14:49:09.619Z,60.41
2023-01-01T14:51:42.502Z,60.17
2023-01-01T14:54:19.215Z,60.02
2023-01-01T14:56:47.301Z,60.23
2023-01-01T14:59:23.291Z,60.08
2023-01-01T15:02:11.777Z,59.90
2023-01-01T15:04:38.873Z,59.74
2023-01-01T15:07:22.304Z,59.96
2023-01-01T15:09:50.531Z,59.99
2023-01-01T15:12:20.572Z,60.09
2023-01-01T15:14:48.671Z,60.14
2023-01-01T15:17:17.496Z,60.02
2023-01-01T15:19:45.839Z,60.17
2023-01-01T15:22:33.077Z,59.91
2023-01-01T15:25:00.731Z,60.23
2023-01-01T15:27:32.952Z,60.16
2023-01-01T15:29:59.957Z,60.13
2023-01-01T15:32:34.977Z,60.31
2023-01-01T15:35:04.026Z,60.31
2023-01-01T15:37:40.987Z,60.20
2023-01-01T15:40:13.749Z,60.28
2023-01-01T15:42:41.999Z,60.34
2023-01-01T15:45:28.670Z,60.38
2023-01-01T15:47:56.360Z,60.55
2023-01-01T15:50:34.656Z,60.49
2023-01-01T15:53:07.889Z,60.58
2023-01-01T15:55:35.876Z,60.45
2023-01-01T15:58:03.481Z,60.48
2023-01-01T16:00:32.652Z,60.50
2023-01-01T16:03:03.620Z,60.53
2023-01-01T16:05:30.623Z,60.53
2023-01-01T16:08:03.727Z,60.57
2023-01-01T16:10:33.975Z,60.48
2023-01-01T16:13:00.464Z,60.56
2023-01-01T16:15:26.993Z,60.65
2023-01-01T16:17:54.491Z,60.47
2023-01-01T16:20:21.974Z,60.34
2023-01-01T16:22:48.581Z,60.51
2023-01-01T16:25:17.628Z,60.42
2023-01-01T16:27:44.850Z,60.43
2023-01-01T16:30:12.931Z,60.34
2023-01-01T16:32:40.024Z,60.42
2023-01-01T16:35:12.157Z,60.49
2023-01-01T16:37:38.964Z,60.40
2023-01-01T16:40:06.964Z,60.41
2023-01-01T16:42:33.817Z,60.44
2023-01-01T16:45:00.317Z,60.54
2023-01-01T16:47:26.787Z,60.63
2023-01-01T16:49:53.312Z,60.51
2023-01-01T16:52:19.761Z,60.61
2023-01-01T16:54:46.212Z,60.53
2023-01-01T16:57:13.055Z,60.55
2023-01-01T16:59:39.545Z,60.47
2023-01-01T17:02:06.310Z,60.60
2023-01-01T17:04:34.621Z,60.65
2023-01-01T17:07:01.141Z,60.75
2023-01-01T17:09:27.560Z,60.67
2023-01-01T17:11:54.112Z,60.72
2023-01-01T17:14:20.644Z,60.73
2023-01-01T17:16:47.235Z,60.92
2023-01-01T17:19:15.641Z,60.70
2023-01-01T17:21:44.867Z,60.81
2023-01-01T17:24:11.626Z,60.81
2023-01-01T17:26:38.485Z,61.07
2023-01-01T17:29:06.860Z,60.59
2023-01-01T17:31:33.526Z,60.73
2023-01-01T17:34:00.414Z,60.72
2023-01-01T17:36:28.461Z,60.65
2023-01-01T17:38:55.454Z,60.83
2023-01-01T17:41:22.250Z,60.59
2023-01-01T17:43:49.568Z,60.65
2023-01-01T17:46:18.668Z,60.48
2023-01-01T17:48:46.072Z,60.75
2023-01-01T17:51:14.967Z,60.68
2023-01-01T17:53:41.546Z,60.70
2023-01-01T17:56:12.841Z,60.93
2023-01-01T17:58:40.443Z,60.64
2023-01-01T18:01:10.140Z,60.97
2023-01-01T18:03:38.832Z,61.01
2023-01-01T18:06:07.156Z,60.86
2023-01-01T18:08:33.566Z,61.09
2023-01-01T18:10:59.977Z,61.00
2023-01-01T18:13:26.644Z,61.04
2023-01-01T18:15:53.126Z,61.21
2023-01-01T18:18:19.714Z,60.95
2023-01-01T18:20:46.166Z,61.17
2023-01-01T18:23:13.163Z,61.16
2023-01-01T18:25:40.071Z,61.29
2023-01-01T18:28:09.642Z,61.23
2023-01-01T18:30:36.138Z,61.27
2023-01-01T18:33:03.091Z,61.06
2023-01-01T18:35:29.581Z,61.04
2023-01-01T18:37:56.550Z,61.20
2023-01-01T18:40:23.563Z,61.18
2023-01-01T18:42:57.941Z,61.25
2023-01-01T18:45:25.724Z,61.46
2023-01-01T18:47:52.534Z,61.42
2023-01-01T18:50:24.480Z,61.27
2023-01-01T18:52:59.043Z,61.14
2023-01-01T18:55:27.298Z,61.25
2023-01-01T18:57:58.642Z,61.25
2023-01-01T19:00:27.674Z,61.39
2023-01-01T19:03:02.556Z,61.23
2023-01-01T19:05:32.254Z,61.29
2023-01-01T19:08:07.723Z,61.63
2023-01-01T19:10:37.901Z,61.47
2023-01-01T19:13:33.259Z,61.51
2023-01-01T19:16:23.787Z,61.47
2023-01-01T19:18:51.111Z,61.49
2023-01-01T19:21:23.028Z,61.60
2023-01-01T19:23:49.857Z,61.46
2023-01-01T19:26:23.291Z,61.58
2023-01-01T19:29:02.044Z,61.72
2023-01-01T19:31:28.803Z,61.65
2023-01-01T19:33:55.337Z,61.60
2023-01-01T19:36:21.725Z,61.64
2023-01-01T19:38:48.190Z,61.49
2023-01-01T19:41:14.919Z,61.51
2023-01-01T19:43:41.378Z,61.69
2023-01-01T19:46:07.962Z,61.82
2023-01-01T19:48:35.189Z,61.79
2023-01-01T19:51:01.674Z,61.38
2023-01-01T19:53:28.258Z,61.61
2023-01-01T19:55:55.269Z,61.73
2023-01-01T19:58:22.376Z,61.86
2023-01-01T20:00:49.853Z,61.79
2023-01-01T20:03:52.365Z,62.12
2023-01-01T20:06:04.478Z,62.07
2023-01-01T20:08:32.053Z,62.08
2023-01-01T20:10:58.836Z,61.84
2023-01-01T20:13:28.281Z,62.37
2023-01-01T20:15:55.060Z,61.77
2023-01-01T20:18:21.529Z,61.93
2023-01-01T20:21:06.374Z,62.13
2023-01-01T20:23:33.282Z,62.44
2023-01-01T20:25:59.896Z,62.32
2023-01-01T20:28:45.053Z,62.09
2023-01-01T20:31:11.823Z,62.53
2023-01-01T20:33:38.360Z,62.50
2023-01-01T20:36:23.558Z,62.44
2023-01-01T20:38:50.131Z,62.71
2023-01-01T20:41:25.355Z,62.40
2023-01-01T20:43:53.974Z,62.77
2023-01-01T20:46:20.892Z,62.97
2023-01-01T20:48:47.727Z,63.26
2023-01-01T20:51:14.355Z,63.41
2023-01-01T20:53:40.855Z,63.34
2023-01-01T20:56:07.521Z,63.37
2023-01-01T20:58:34.197Z,63.63
2023-01-01T21:01:00.705Z,63.55
2023-01-01T21:03:27.260Z,63.61
2023-01-01T21:05:53.942Z,63.97
2023-01-01T21:08:20.482Z,63.43
2023-01-01T21:10:46.808Z,63.70
2023-01-01T21:13:13.345Z,63.43
2023-01-01T21:15:39.762Z,63.35
2023-01-01T21:18:06.187Z,63.50
2023-01-01T21:20:46.276Z,63.61
2023-01-01T21:23:16.966Z,63.58
2023-01-01T21:25:51.987Z,63.62
2023-01-01T21:28:19.188Z,63.52
2023-01-01T21:30:56.077Z,63.52
2023-01-01T21:33:31.452Z,63.93
2023-01-01T21:36:01.389Z,64.02
2023-01-01T21:38:31.319Z,63.90
2023-01-01T21:40:59.865Z,63.95
2023-01-01T21:43:36.869Z,64.32
2023-01-01T21:46:06.561Z,64.47
2023-01-01T21:48:46.857Z,64.49
2023-01-01T21:51:37.660Z,64.81
2023-01-01T21:54:11.437Z,64.30
2023-01-01T21:56:40.095Z,64.78
2023-01-01T21:59:26.948Z,64.65
2023-01-01T22:02:06.688Z,64.69
2023-01-01T22:04:43.948Z,64.56
2023-01-01T22:07:57.686Z,64.74
2023-01-01T22:10:22.897Z,65.06
2023-01-01T22:12:55.308Z,64.77
2023-01-01T22:15:24.591Z,64.66
2023-01-01T22:17:56.848Z,64.86
2023-01-01T22:20:23.630Z,64.96
2023-01-01T22:22:50.334Z,64.71
2023-01-01T22:25:31.017Z,64.62
2023-01-01T22:27:58.747Z,64.71
2023-01-01T22:30:25.461Z,64.77
2023-01-01T22:32:52.363Z,65.16
2023-01-01T22:35:27.753Z,65.06
2023-01-01T22:37:56.258Z,64.93
2023-01-01T22:40:28.328Z,65.24
2023-01-01T22:43:15.858Z,64.95
2023-01-01T22:45:47.278Z,65.21
2023-01-01T22:48:37.774Z,65.32
2023-01-01T22:51:29.121Z,65.18
2023-01-01T22:53:56.007Z,65.06
2023-01-01T22:56:22.421Z,64.57
2023-01-01T22:58:54.835Z,64.95
2023-01-01T23:01:23.932Z,65.12
2023-01-01T23:03:50.699Z,65.22
2023-01-01T23:06:18.054Z,65.21
2023-01-01T23:08:45.120Z,65.32
2023-01-01T23:11:11.852Z,64.85
2023-01-01T23:13:56.907Z,65.22
2023-01-01T23:16:23.882Z,65.49
2023-01-01T23:18:50.335Z,65.22
2023-01-01T23:21:26.044Z,65.27
2023-01-01T23:23:56.189Z,65.58
2023-01-01T23:26:23.791Z,65.74
2023-01-01T23:28:50.969Z,65.81
2023-01-01T23:31:24.454Z,65.68
2023-01-01T23:33:53.289Z,65.45
2023-01-01T23:36:20.304Z,65.57
2023-01-01T23:38:46.786Z,65.61
2023-01-01T23:41:13.704Z,65.10
2023-01-01T23:43:43.670Z,65.22
2023-01-01T23:46:13.964Z,65.27
2023-01-01T23:48:41.587Z,65.39
2023-01-01T23:51:08.535Z,65.27
2023-01-01T23:53:35.071Z,65.70
2023-01-01T23:56:02.075Z,65.84
2023-01-01T23:58:28.772Z,65.33
